createdAt,value
2023-05-11T00:00:39.621Z,0.00
2023-05-11T00:01:39.624Z,0.00
2023-05-11T00:02:39.697Z,0.00
2023-05-11T00:03:39.693Z,0.00
2023-05-11T00:04:39.725Z,0.00
2023-05-11T00:05:39.538Z,0.20
2023-05-11T00:06:46.566Z,0.00
2023-05-11T00:07:46.552Z,0.10
2023-05-11T00:08:47.860Z,0.10
2023-05-11T00:09:46.820Z,0.00
2023-05-11T00:10:46.811Z,0.00
2023-05-11T00:11:46.520Z,0.00
2023-05-11T00:12:39.498Z,0.00
2023-05-11T00:13:39.492Z,0.00
2023-05-11T00:14:39.477Z,0.00
2023-05-11T00:15:39.531Z,0.00
2023-05-11T00:16:39.448Z,0.00
2023-05-11T00:17:39.431Z,0.00
2023-05-11T00:18:39.426Z,0.00
2023-05-11T00:19:39.408Z,0.00
2023-05-11T00:20:39.377Z,0.10
2023-05-11T00:21:39.382Z,0.00
2023-05-11T00:22:39.374Z,0.00
2023-05-11T00:23:39.353Z,0.00
2023-05-11T00:24:39.373Z,0.00
2023-05-11T00:25:39.319Z,0.00
2023-05-11T00:26:39.311Z,0.00
2023-05-11T00:27:39.330Z,0.00
2023-05-11T00:28:39.300Z,0.10
2023-05-11T00:29:39.293Z,0.00
2023-05-11T00:30:39.313Z,0.00
2023-05-11T00:31:39.291Z,0.00
2023-05-11T00:32:39.365Z,0.00
2023-05-11T00:33:39.220Z,0.00
2023-05-11T00:34:39.234Z,0.00
2023-05-11T00:35:39.209Z,0.00
2023-05-11T00:36:41.074Z,0.00
2023-05-11T00:37:39.213Z,0.00
2023-05-11T00:38:39.188Z,0.00
2023-05-11T00:39:39.159Z,0.00
2023-05-11T00:40:39.173Z,0.00
2023-05-11T00:41:39.154Z,0.00
2023-05-11T00:42:39.135Z,0.30
2023-05-11T00:43:39.124Z,0.00
2023-05-11T00:44:39.119Z,0.00
2023-05-11T00:45:39.092Z,0.00
2023-05-11T00:46:39.189Z,0.00
2023-05-11T00:47:39.104Z,0.00
2023-05-11T00:48:39.090Z,0.00
2023-05-11T00:49:39.051Z,0.10
2023-05-11T00:50:39.054Z,0.20
2023-05-11T00:51:39.052Z,0.00
2023-05-11T00:52:39.021Z,0.00
2023-05-11T00:53:39.019Z,0.00
2023-05-11T00:54:39.022Z,0.10
2023-05-11T00:55:39.014Z,0.00
2023-05-11T00:56:38.972Z,0.00
2023-05-11T00:57:38.987Z,0.00
2023-05-11T00:58:38.940Z,0.00
2023-05-11T00:59:38.987Z,0.00
2023-05-11T01:00:39.000Z,0.00
2023-05-11T01:01:38.956Z,0.00
2023-05-11T01:02:39.088Z,0.10
2023-05-11T01:03:38.894Z,0.10
2023-05-11T01:04:38.936Z,0.00
2023-05-11T01:05:38.875Z,0.00
2023-05-11T01:06:38.873Z,0.00
2023-05-11T01:07:38.864Z,0.00
2023-05-11T01:08:38.851Z,0.00
2023-05-11T01:09:38.832Z,0.00
2023-05-11T01:10:38.855Z,0.00
2023-05-11T01:11:38.943Z,0.00
2023-05-11T01:12:38.798Z,0.00
2023-05-11T01:13:38.817Z,0.00
2023-05-11T01:14:38.801Z,0.00
2023-05-11T01:15:38.772Z,0.00
2023-05-11T01:16:38.790Z,0.00
2023-05-11T01:17:38.760Z,0.00
2023-05-11T01:18:38.762Z,0.00
2023-05-11T01:19:38.740Z,0.00
2023-05-11T01:20:38.706Z,0.40
2023-05-11T01:21:38.696Z,0.00
2023-05-11T01:22:38.703Z,0.00
2023-05-11T01:23:38.720Z,0.00
2023-05-11T01:24:38.674Z,0.00
2023-05-11T01:25:38.658Z,0.00
2023-05-11T01:26:38.679Z,0.00
2023-05-11T01:27:38.636Z,0.00
2023-05-11T01:28:38.629Z,0.00
2023-05-11T01:29:38.619Z,0.00
2023-05-11T01:30:38.596Z,0.00
2023-05-11T01:31:38.653Z,0.40
2023-05-11T01:32:41.445Z,0.00
2023-05-11T01:33:38.572Z,0.00
2023-05-11T01:34:38.551Z,0.20
2023-05-11T01:35:38.536Z,0.00
2023-05-11T01:36:38.540Z,0.00
2023-05-11T01:37:38.528Z,0.00
2023-05-11T01:38:38.503Z,0.00
2023-05-11T01:39:38.508Z,0.00
2023-05-11T01:40:38.501Z,0.00
2023-05-11T01:41:38.490Z,0.00
2023-05-11T01:42:38.524Z,0.00
2023-05-11T01:43:38.449Z,0.10
2023-05-11T01:44:38.448Z,0.00
2023-05-11T01:45:38.490Z,0.00
2023-05-11T01:46:38.652Z,0.00
2023-05-11T01:47:38.459Z,0.00
2023-05-11T01:48:38.437Z,0.00
2023-05-11T01:49:38.397Z,0.00
2023-05-11T01:50:38.394Z,0.00
2023-05-11T01:51:38.398Z,0.10
2023-05-11T01:52:38.351Z,0.00
2023-05-11T01:53:38.358Z,0.00
2023-05-11T01:54:38.330Z,0.00
2023-05-11T01:55:38.310Z,0.00
2023-05-11T01:56:38.320Z,0.20
2023-05-11T01:57:40.049Z,0.00
2023-05-11T01:58:46.305Z,0.00
2023-05-11T01:59:45.300Z,0.00
2023-05-11T02:00:45.835Z,0.00
2023-05-11T02:01:46.603Z,0.00
2023-05-11T02:02:45.681Z,0.00
2023-05-11T02:03:45.611Z,0.00
2023-05-11T02:04:38.250Z,0.00
2023-05-11T02:05:38.197Z,0.00
2023-05-11T02:06:38.197Z,0.10
2023-05-11T02:07:38.176Z,0.00
2023-05-11T02:08:38.169Z,0.00
2023-05-11T02:09:38.173Z,0.00
2023-05-11T02:10:38.157Z,0.00
2023-05-11T02:11:38.131Z,0.10
2023-05-11T02:12:38.120Z,0.10
2023-05-11T02:13:38.122Z,0.00
2023-05-11T02:14:38.104Z,0.00
2023-05-11T02:15:38.100Z,0.00
2023-05-11T02:16:38.096Z,0.00
2023-05-11T02:17:38.093Z,0.00
2023-05-11T02:18:38.144Z,0.00
2023-05-11T02:19:38.065Z,0.00
2023-05-11T02:20:38.046Z,0.00
2023-05-11T02:21:38.042Z,0.60
2023-05-11T02:22:38.033Z,0.00
2023-05-11T02:23:38.023Z,0.00
2023-05-11T02:24:38.009Z,0.00
2023-05-11T02:25:37.964Z,0.00
2023-05-11T02:26:38.028Z,0.00
2023-05-11T02:27:37.962Z,0.00
2023-05-11T02:28:37.958Z,0.00
2023-05-11T02:29:37.932Z,0.00
2023-05-11T02:30:37.916Z,0.10
2023-05-11T02:31:37.967Z,0.00
2023-05-11T02:32:37.957Z,0.00
2023-05-11T02:33:37.913Z,0.60
2023-05-11T02:34:37.873Z,0.00
2023-05-11T02:35:37.874Z,0.00
2023-05-11T02:36:37.909Z,0.00
2023-05-11T02:37:37.850Z,0.20
2023-05-11T02:38:37.850Z,0.00
2023-05-11T02:39:37.822Z,0.00
2023-05-11T02:40:37.821Z,0.00
2023-05-11T02:41:37.809Z,0.00
2023-05-11T02:42:37.823Z,0.00
2023-05-11T02:43:37.800Z,0.00
2023-05-11T02:44:37.757Z,0.00
2023-05-11T02:45:37.759Z,0.10
2023-05-11T02:46:37.759Z,0.00
2023-05-11T02:47:37.782Z,0.00
2023-05-11T02:48:37.729Z,0.00
2023-05-11T02:49:37.717Z,0.00
2023-05-11T02:50:37.689Z,0.10
2023-05-11T02:51:37.697Z,0.00
2023-05-11T02:52:37.703Z,0.00
2023-05-11T02:53:37.709Z,0.10
2023-05-11T02:54:37.678Z,0.00
2023-05-11T02:55:37.649Z,0.00
2023-05-11T02:56:37.660Z,0.00
2023-05-11T02:57:39.389Z,0.00
2023-05-11T02:58:37.708Z,0.00
2023-05-11T02:59:37.611Z,0.00
2023-05-11T03:00:37.659Z,0.10
2023-05-11T03:01:37.652Z,0.00
2023-05-11T03:02:37.702Z,0.00
2023-05-11T03:03:37.749Z,0.20
2023-05-11T03:04:37.589Z,0.00
2023-05-11T03:05:37.525Z,0.00
2023-05-11T03:06:37.569Z,0.00
2023-05-11T03:07:37.502Z,0.10
2023-05-11T03:08:37.492Z,0.00
2023-05-11T03:09:37.512Z,0.00
2023-05-11T03:10:37.476Z,0.10
2023-05-11T03:11:37.475Z,0.00
2023-05-11T03:12:37.445Z,0.00
2023-05-11T03:13:37.446Z,0.00
2023-05-11T03:14:37.442Z,0.20
2023-05-11T03:15:37.422Z,0.00
2023-05-11T03:16:37.461Z,0.00
2023-05-11T03:17:37.419Z,0.00
2023-05-11T03:18:37.435Z,0.00
2023-05-11T03:19:37.371Z,0.10
2023-05-11T03:20:37.685Z,0.10
2023-05-11T03:21:37.363Z,0.00
2023-05-11T03:22:37.332Z,0.10
2023-05-11T03:23:37.350Z,0.10
2023-05-11T03:24:37.391Z,0.00
2023-05-11T03:25:37.317Z,0.00
2023-05-11T03:26:37.311Z,0.00
2023-05-11T03:27:37.300Z,0.00
2023-05-11T03:28:37.322Z,0.00
2023-05-11T03:29:37.314Z,0.00
2023-05-11T03:30:37.257Z,0.00
2023-05-11T03:31:37.311Z,0.00
2023-05-11T03:32:37.281Z,0.10
2023-05-11T03:33:37.228Z,0.00
2023-05-11T03:34:37.240Z,0.10
2023-05-11T03:35:37.206Z,0.00
2023-05-11T03:36:37.230Z,0.00
2023-05-11T03:37:37.223Z,0.00
2023-05-11T03:38:37.179Z,0.00
2023-05-11T03:39:37.174Z,0.00
2023-05-11T03:40:37.150Z,0.00
2023-05-11T03:41:37.144Z,0.00
2023-05-11T03:42:37.120Z,0.00
2023-05-11T03:43:37.135Z,0.10
2023-05-11T03:44:37.110Z,0.00
2023-05-11T03:45:37.115Z,0.00
2023-05-11T03:46:37.202Z,0.00
2023-05-11T03:47:37.090Z,0.00
2023-05-11T03:48:37.080Z,0.00
2023-05-11T03:49:37.068Z,0.00
2023-05-11T03:50:37.041Z,0.00
2023-05-11T03:51:37.028Z,0.60
2023-05-11T03:52:37.062Z,0.10
2023-05-11T03:53:36.992Z,0.10
2023-05-11T03:54:45.817Z,0.00
2023-05-11T03:55:46.460Z,0.00
2023-05-11T03:56:44.018Z,0.20
2023-05-11T03:57:44.004Z,0.10
2023-05-11T03:58:44.295Z,0.00
2023-05-11T03:59:36.925Z,0.00
2023-05-11T04:00:36.920Z,0.00
2023-05-11T04:01:36.938Z,0.00
2023-05-11T04:02:36.981Z,0.00
2023-05-11T04:03:37.051Z,0.00
2023-05-11T04:04:36.868Z,0.00
2023-05-11T04:05:36.870Z,0.00
2023-05-11T04:06:36.837Z,0.00
2023-05-11T04:07:36.855Z,0.20
2023-05-11T04:08:36.852Z,0.00
2023-05-11T04:09:36.828Z,0.10
2023-05-11T04:10:36.830Z,0.00
2023-05-11T04:11:36.817Z,0.00
2023-05-11T04:12:36.780Z,0.00
2023-05-11T04:13:36.828Z,0.00
2023-05-11T04:14:37.057Z,0.00
2023-05-11T04:15:36.745Z,0.00
2023-05-11T04:16:36.844Z,0.00
2023-05-11T04:17:36.756Z,0.00
2023-05-11T04:18:36.789Z,0.00
2023-05-11T04:19:36.706Z,0.00
2023-05-11T04:20:36.703Z,0.10
2023-05-11T04:21:36.695Z,0.00
2023-05-11T04:22:36.673Z,0.10
2023-05-11T04:23:36.651Z,0.10
2023-05-11T04:24:36.647Z,0.30
2023-05-11T04:25:36.684Z,0.00
2023-05-11T04:26:36.666Z,0.00
2023-05-11T04:27:36.609Z,0.00
2023-05-11T04:28:36.589Z,0.00
2023-05-11T04:29:36.638Z,0.00
2023-05-11T04:30:36.602Z,0.00
2023-05-11T04:31:36.618Z,0.00
2023-05-11T04:32:36.608Z,0.10
2023-05-11T04:33:36.621Z,0.00
2023-05-11T04:34:36.528Z,0.00
2023-05-11T04:35:36.537Z,0.10
2023-05-11T04:36:36.533Z,0.00
2023-05-11T04:37:36.523Z,0.10
2023-05-11T04:38:36.487Z,0.00
2023-05-11T04:39:36.502Z,0.00
2023-05-11T04:40:36.484Z,0.00
2023-05-11T04:41:36.451Z,0.20
2023-05-11T04:42:36.456Z,0.10
2023-05-11T04:43:36.421Z,0.00
2023-05-11T04:44:36.422Z,0.10
2023-05-11T04:45:36.399Z,0.20
2023-05-11T04:46:36.415Z,0.10
2023-05-11T04:47:36.415Z,0.00
2023-05-11T04:48:36.383Z,0.10
2023-05-11T04:49:36.375Z,0.40
2023-05-11T04:50:36.363Z,0.00
2023-05-11T04:51:39.140Z,0.10
2023-05-11T04:52:36.338Z,0.00
2023-05-11T04:53:36.330Z,0.00
2023-05-11T04:54:36.295Z,0.20
2023-05-11T04:55:36.298Z,0.10
2023-05-11T04:56:36.300Z,0.10
2023-05-11T04:57:36.273Z,0.10
2023-05-11T04:58:36.277Z,0.00
2023-05-11T04:59:36.320Z,0.10
2023-05-11T05:00:36.238Z,0.00
2023-05-11T05:01:36.261Z,0.00
2023-05-11T05:02:36.279Z,0.00
2023-05-11T05:03:36.258Z,0.00
2023-05-11T05:04:36.615Z,0.10
2023-05-11T05:05:36.188Z,0.00
2023-05-11T05:06:36.159Z,0.00
2023-05-11T05:07:36.164Z,0.00
2023-05-11T05:08:36.152Z,0.10
2023-05-11T05:09:36.130Z,0.20
2023-05-11T05:10:36.152Z,0.20
2023-05-11T05:11:36.141Z,0.00
2023-05-11T05:12:36.114Z,0.00
2023-05-11T05:13:36.104Z,0.20
2023-05-11T05:14:36.079Z,0.00
2023-05-11T05:15:36.091Z,0.10
2023-05-11T05:16:36.109Z,0.00
2023-05-11T05:17:36.062Z,0.00
2023-05-11T05:18:36.113Z,0.20
2023-05-11T05:19:36.026Z,0.00
2023-05-11T05:20:36.024Z,0.00
2023-05-11T05:21:36.032Z,0.10
2023-05-11T05:22:36.021Z,0.00
2023-05-11T05:23:35.985Z,0.20
2023-05-11T05:24:35.994Z,0.00
2023-05-11T05:25:35.954Z,0.00
2023-05-11T05:26:36.013Z,0.00
2023-05-11T05:27:35.982Z,0.00
2023-05-11T05:28:35.956Z,0.40
2023-05-11T05:29:35.942Z,0.00
2023-05-11T05:30:35.926Z,0.00
2023-05-11T05:31:35.927Z,0.00
2023-05-11T05:32:40.757Z,0.00
2023-05-11T05:33:36.171Z,0.00
2023-05-11T05:34:35.869Z,0.10
2023-05-11T05:35:35.876Z,0.00
2023-05-11T05:36:35.875Z,0.00
2023-05-11T05:37:35.830Z,0.10
2023-05-11T05:38:35.813Z,0.00
2023-05-11T05:39:35.832Z,0.00
2023-05-11T05:40:35.818Z,0.00
2023-05-11T05:41:35.794Z,0.00
2023-05-11T05:42:35.799Z,0.00
2023-05-11T05:43:35.762Z,0.00
2023-05-11T05:44:35.826Z,0.10
2023-05-11T05:45:42.791Z,0.20
2023-05-11T05:46:44.095Z,0.40
2023-05-11T05:47:42.834Z,0.00
2023-05-11T05:48:43.053Z,0.30
2023-05-11T05:49:35.678Z,0.40
2023-05-11T05:50:42.689Z,0.00
2023-05-11T05:51:42.716Z,0.00
2023-05-11T05:52:35.681Z,0.00
2023-05-11T05:53:35.685Z,0.00
2023-05-11T05:54:35.675Z,0.00
2023-05-11T05:55:35.634Z,0.00
2023-05-11T05:56:35.611Z,0.30
2023-05-11T05:57:35.614Z,0.00
2023-05-11T05:58:35.596Z,0.10
2023-05-11T05:59:35.603Z,0.10
2023-05-11T06:00:35.580Z,0.20
2023-05-11T06:01:35.605Z,0.10
2023-05-11T06:02:35.631Z,0.00
2023-05-11T06:03:35.760Z,0.00
2023-05-11T06:04:35.588Z,0.00
2023-05-11T06:05:35.528Z,0.00
2023-05-11T06:06:35.520Z,0.40
2023-05-11T06:07:35.495Z,0.30
2023-05-11T06:08:35.492Z,0.50
2023-05-11T06:09:37.456Z,0.30
2023-05-11T06:10:35.517Z,0.10
2023-05-11T06:11:35.519Z,0.10
2023-05-11T06:12:35.447Z,0.30
2023-05-11T06:13:35.443Z,0.40
2023-05-11T06:14:35.428Z,0.20
2023-05-11T06:15:35.414Z,0.10
2023-05-11T06:16:35.492Z,0.10
2023-05-11T06:17:35.475Z,0.00
2023-05-11T06:18:35.478Z,0.00
2023-05-11T06:19:35.389Z,0.00
2023-05-11T06:20:35.459Z,0.10
2023-05-11T06:21:35.350Z,0.30
2023-05-11T06:22:35.348Z,0.20
2023-05-11T06:23:35.325Z,0.00
2023-05-11T06:24:35.319Z,0.00
2023-05-11T06:25:35.301Z,0.20
2023-05-11T06:26:35.308Z,0.10
2023-05-11T06:27:36.968Z,0.00
2023-05-11T06:28:35.320Z,0.10
2023-05-11T06:29:35.272Z,0.70
2023-05-11T06:30:35.251Z,0.30
2023-05-11T06:31:35.290Z,0.00
2023-05-11T06:32:35.284Z,0.00
2023-05-11T06:33:35.210Z,0.20
2023-05-11T06:34:35.211Z,0.10
2023-05-11T06:35:35.222Z,0.00
2023-05-11T06:36:35.193Z,0.30
2023-05-11T06:37:35.184Z,0.00
2023-05-11T06:38:35.178Z,0.00
2023-05-11T06:39:35.169Z,0.10
2023-05-11T06:40:35.126Z,0.10
2023-05-11T06:41:35.161Z,0.10
2023-05-11T06:42:35.119Z,0.10
2023-05-11T06:43:35.111Z,0.20
2023-05-11T06:44:35.076Z,0.10
2023-05-11T06:45:37.793Z,0.00
2023-05-11T06:46:35.118Z,0.10
2023-05-11T06:47:35.069Z,0.10
2023-05-11T06:48:35.105Z,0.10
2023-05-11T06:49:35.041Z,0.20
2023-05-11T06:50:35.056Z,0.10
2023-05-11T06:51:35.034Z,0.10
2023-05-11T06:52:35.000Z,0.00
2023-05-11T06:53:34.991Z,0.10
2023-05-11T06:54:34.995Z,0.10
2023-05-11T06:55:34.985Z,0.10
2023-05-11T06:56:34.977Z,0.10
2023-05-11T06:57:34.942Z,0.30
2023-05-11T06:58:34.924Z,0.10
2023-05-11T06:59:34.926Z,0.00
2023-05-11T07:00:34.955Z,0.10
2023-05-11T07:01:35.058Z,0.00
2023-05-11T07:02:34.978Z,0.20
2023-05-11T07:03:34.866Z,0.50
2023-05-11T07:04:34.964Z,0.00
2023-05-11T07:05:34.884Z,0.10
2023-05-11T07:06:34.857Z,0.00
2023-05-11T07:07:34.855Z,0.00
2023-05-11T07:08:34.855Z,0.00
2023-05-11T07:09:34.822Z,0.30
2023-05-11T07:10:34.802Z,0.30
2023-05-11T07:11:34.764Z,0.10
2023-05-11T07:12:34.753Z,0.00
2023-05-11T07:13:34.746Z,0.10
2023-05-11T07:14:34.724Z,0.30
2023-05-11T07:15:34.756Z,0.10
2023-05-11T07:16:34.779Z,0.40
2023-05-11T07:17:34.781Z,0.30
2023-05-11T07:18:34.726Z,0.00
2023-05-11T07:19:34.696Z,0.20
2023-05-11T07:20:34.699Z,0.40
2023-05-11T07:21:34.648Z,0.20
2023-05-11T07:22:34.633Z,0.40
2023-05-11T07:23:34.615Z,0.00
2023-05-11T07:24:34.652Z,0.20
2023-05-11T07:25:34.628Z,0.00
2023-05-11T07:26:34.600Z,0.20
2023-05-11T07:27:34.586Z,0.30
2023-05-11T07:28:34.626Z,0.10
2023-05-11T07:29:34.637Z,0.10
2023-05-11T07:30:34.558Z,0.40
2023-05-11T07:31:34.553Z,0.00
2023-05-11T07:32:34.553Z,0.20
2023-05-11T07:33:34.564Z,0.20
2023-05-11T07:34:34.505Z,0.10
2023-05-11T07:35:34.512Z,0.30
2023-05-11T07:36:34.501Z,0.30
2023-05-11T07:37:34.460Z,0.20
2023-05-11T07:38:34.459Z,0.60
2023-05-11T07:39:34.467Z,0.30
2023-05-11T07:40:41.439Z,0.40
2023-05-11T07:41:41.412Z,0.60
2023-05-11T07:42:41.771Z,0.40
2023-05-11T07:43:41.411Z,0.20
2023-05-11T07:44:42.676Z,0.40
2023-05-11T07:45:41.720Z,0.20
2023-05-11T07:46:34.444Z,0.30
2023-05-11T07:47:36.732Z,0.10
2023-05-11T07:48:34.348Z,0.80
2023-05-11T07:49:42.936Z,0.40
2023-05-11T07:50:35.341Z,0.60
2023-05-11T07:51:34.337Z,0.30
2023-05-11T07:52:34.308Z,0.70
2023-05-11T07:53:34.281Z,0.30
2023-05-11T07:54:34.296Z,0.80
2023-05-11T07:55:34.264Z,0.40
2023-05-11T07:56:34.300Z,1.00
2023-05-11T07:57:34.258Z,0.30
2023-05-11T07:58:34.240Z,0.40
2023-05-11T07:59:34.234Z,0.40
2023-05-11T08:00:34.238Z,0.70
2023-05-11T08:01:34.194Z,0.60
2023-05-11T08:02:34.317Z,0.70
2023-05-11T08:03:34.214Z,0.70
2023-05-11T08:04:34.201Z,0.30
2023-05-11T08:05:34.174Z,0.50
2023-05-11T08:06:34.134Z,0.40
2023-05-11T08:07:34.131Z,0.60
2023-05-11T08:08:34.131Z,0.70
2023-05-11T08:09:34.147Z,0.30
2023-05-11T08:10:35.903Z,0.60
2023-05-11T08:11:34.067Z,0.30
2023-05-11T08:12:34.087Z,0.30
2023-05-11T08:13:34.070Z,0.30
2023-05-11T08:14:34.089Z,0.30
2023-05-11T08:15:34.042Z,0.20
2023-05-11T08:16:34.106Z,0.40
2023-05-11T08:17:34.068Z,0.80
2023-05-11T08:18:34.046Z,0.40
2023-05-11T08:19:33.984Z,0.50
2023-05-11T08:20:33.995Z,0.50
2023-05-11T08:21:33.990Z,0.40
2023-05-11T08:22:33.976Z,0.20
2023-05-11T08:23:33.942Z,0.70
2023-05-11T08:24:33.940Z,0.80
2023-05-11T08:25:33.989Z,0.60
2023-05-11T08:26:33.957Z,0.90
2023-05-11T08:27:33.904Z,0.40
2023-05-11T08:28:33.940Z,0.40
2023-05-11T08:29:33.920Z,0.90
2023-05-11T08:30:33.876Z,0.40
2023-05-11T08:31:33.929Z,0.70
2023-05-11T08:32:40.592Z,0.70
2023-05-11T08:33:37.978Z,0.30
2023-05-11T08:34:33.860Z,0.50
2023-05-11T08:35:33.837Z,0.70
2023-05-11T08:36:33.833Z,0.80
2023-05-11T08:37:33.804Z,0.40
2023-05-11T08:38:33.782Z,0.90
2023-05-11T08:40:34.770Z,0.60
2023-05-11T08:41:33.756Z,0.50
2023-05-11T08:42:33.769Z,0.70
2023-05-11T08:43:33.792Z,0.60
2023-05-11T08:44:33.745Z,0.50
2023-05-11T08:45:33.757Z,1.00
2023-05-11T08:46:33.712Z,0.50
2023-05-11T08:47:33.720Z,1.20
2023-05-11T08:48:33.697Z,1.10
2023-05-11T08:49:33.679Z,0.80
2023-05-11T08:50:33.639Z,0.80
2023-05-11T08:51:33.695Z,0.60
2023-05-11T08:52:33.652Z,0.20
2023-05-11T08:53:33.642Z,0.50
2023-05-11T08:54:33.633Z,0.20
2023-05-11T08:55:34.572Z,0.90
2023-05-11T08:56:33.572Z,0.70
2023-05-11T08:57:33.586Z,0.50
2023-05-11T08:58:33.551Z,1.00
2023-05-11T08:59:33.578Z,0.60
2023-05-11T09:00:33.526Z,0.40
2023-05-11T09:01:33.608Z,0.20
2023-05-11T09:02:33.575Z,1.00
2023-05-11T09:03:33.515Z,0.70
2023-05-11T09:04:33.538Z,0.80
2023-05-11T09:05:33.544Z,0.70
2023-05-11T09:06:33.455Z,0.60
2023-05-11T09:07:33.456Z,0.50
2023-05-11T09:08:33.433Z,0.70
2023-05-11T09:09:33.436Z,0.80
2023-05-11T09:10:33.417Z,0.70
2023-05-11T09:11:33.416Z,0.90
2023-05-11T09:12:33.398Z,0.40
2023-05-11T09:13:33.397Z,0.80
2023-05-11T09:14:33.374Z,0.50
2023-05-11T09:15:37.139Z,0.90
2023-05-11T09:16:37.248Z,0.70
2023-05-11T09:17:33.382Z,0.20
2023-05-11T09:18:33.315Z,0.50
2023-05-11T09:19:33.310Z,0.90
2023-05-11T09:20:33.306Z,0.70
2023-05-11T09:21:33.317Z,0.50
2023-05-11T09:22:35.465Z,0.60
2023-05-11T09:23:33.270Z,0.60
2023-05-11T09:24:33.257Z,0.60
2023-05-11T09:25:33.270Z,0.70
2023-05-11T09:26:33.221Z,0.80
2023-05-11T09:27:33.208Z,0.60
2023-05-11T09:28:35.991Z,0.30
2023-05-11T09:29:33.184Z,0.70
2023-05-11T09:30:33.202Z,0.60
2023-05-11T09:31:33.211Z,0.80
2023-05-11T09:32:42.095Z,0.70
2023-05-11T09:33:40.146Z,0.80
2023-05-11T09:34:33.142Z,1.10
2023-05-11T09:35:40.154Z,0.70
2023-05-11T09:36:35.079Z,0.40
2023-05-11T09:37:40.113Z,0.50
2023-05-11T09:38:33.086Z,0.70
2023-05-11T09:40:34.190Z,0.70
2023-05-11T09:41:35.729Z,0.60
2023-05-11T09:42:33.049Z,1.20
2023-05-11T09:43:33.081Z,0.60
2023-05-11T09:44:33.084Z,0.90
2023-05-11T09:45:33.035Z,0.80
2023-05-11T09:46:33.086Z,0.70
2023-05-11T09:47:33.073Z,0.40
2023-05-11T09:48:33.000Z,0.30
2023-05-11T09:49:32.985Z,0.40
2023-05-11T09:50:32.967Z,0.50
2023-05-11T09:51:33.005Z,0.50
2023-05-11T09:52:32.955Z,0.40
2023-05-11T09:53:32.933Z,1.10
2023-05-11T09:54:32.953Z,1.00
2023-05-11T09:55:32.973Z,0.60
2023-05-11T09:56:32.898Z,0.80
2023-05-11T09:57:32.906Z,0.40
2023-05-11T09:58:32.911Z,0.80
2023-05-11T09:59:32.881Z,0.60
2023-05-11T10:00:32.871Z,0.50
2023-05-11T10:01:32.997Z,0.80
2023-05-11T10:02:32.900Z,0.50
2023-05-11T10:03:32.925Z,0.70
2023-05-11T10:04:33.054Z,0.50
2023-05-11T10:05:32.822Z,0.70
2023-05-11T10:06:32.772Z,0.50
2023-05-11T10:07:32.781Z,1.40
2023-05-11T10:08:32.776Z,0.60
2023-05-11T10:09:32.767Z,0.40
2023-05-11T10:10:32.750Z,0.60
2023-05-11T10:11:32.739Z,0.20
2023-05-11T10:12:32.792Z,0.30
2023-05-11T10:13:32.739Z,0.90
2023-05-11T10:14:32.697Z,0.70
2023-05-11T10:15:32.709Z,1.10
2023-05-11T10:16:32.706Z,1.90
2023-05-11T10:17:32.718Z,0.70
2023-05-11T10:18:32.690Z,0.60
2023-05-11T10:19:32.636Z,0.40
2023-05-11T10:20:32.664Z,0.60
2023-05-11T10:21:32.633Z,1.10
2023-05-11T10:22:32.822Z,1.10
2023-05-11T10:23:32.633Z,0.50
2023-05-11T10:24:32.634Z,1.10
2023-05-11T10:25:32.606Z,0.60
2023-05-11T10:26:32.588Z,0.80
2023-05-11T10:27:32.907Z,0.20
2023-05-11T10:28:32.535Z,0.70
2023-05-11T10:29:32.536Z,0.80
2023-05-11T10:30:32.533Z,1.10
2023-05-11T10:31:32.580Z,0.50
2023-05-11T10:32:32.529Z,0.60
2023-05-11T10:33:32.526Z,0.70
2023-05-11T10:34:32.462Z,0.70
2023-05-11T10:35:32.464Z,1.00
2023-05-11T10:36:32.518Z,0.90
2023-05-11T10:37:32.446Z,0.40
2023-05-11T10:38:32.435Z,0.40
2023-05-11T10:39:32.452Z,0.70
2023-05-11T10:40:32.456Z,0.40
2023-05-11T10:41:32.381Z,0.50
2023-05-11T10:42:32.392Z,0.40
2023-05-11T10:43:32.374Z,0.80
2023-05-11T10:44:32.420Z,0.30
2023-05-11T10:45:32.420Z,0.50
2023-05-11T10:46:32.394Z,0.80
2023-05-11T10:47:32.375Z,0.60
2023-05-11T10:48:32.325Z,0.90
2023-05-11T10:49:32.306Z,0.60
2023-05-11T10:50:32.333Z,0.50
2023-05-11T10:51:32.288Z,0.60
2023-05-11T10:52:32.276Z,0.70
2023-05-11T10:53:32.304Z,0.50
2023-05-11T10:54:32.257Z,1.50
2023-05-11T10:55:32.240Z,0.50
2023-05-11T10:56:32.353Z,0.40
2023-05-11T10:57:33.619Z,0.40
2023-05-11T10:58:32.232Z,0.40
2023-05-11T10:59:32.228Z,0.50
2023-05-11T11:00:32.502Z,0.40
2023-05-11T11:01:32.239Z,0.60
2023-05-11T11:02:32.197Z,0.70
2023-05-11T11:03:32.209Z,0.40
2023-05-11T11:04:32.172Z,0.80
2023-05-11T11:05:32.159Z,1.00
2023-05-11T11:06:32.156Z,0.60
2023-05-11T11:07:32.106Z,1.20
2023-05-11T11:08:32.149Z,0.40
2023-05-11T11:09:32.075Z,0.90
2023-05-11T11:10:32.118Z,1.00
2023-05-11T11:11:32.148Z,0.50
2023-05-11T11:12:32.070Z,0.60
2023-05-11T11:13:32.072Z,0.60
2023-05-11T11:14:32.025Z,0.50
2023-05-11T11:15:32.056Z,0.60
2023-05-11T11:16:32.031Z,0.60
2023-05-11T11:17:32.428Z,0.50
2023-05-11T11:18:32.038Z,0.80
2023-05-11T11:19:31.996Z,0.40
2023-05-11T11:20:31.962Z,0.60
2023-05-11T11:21:31.948Z,0.20
2023-05-11T11:22:31.960Z,0.70
2023-05-11T11:23:31.996Z,0.40
2023-05-11T11:24:31.945Z,0.40
2023-05-11T11:25:31.902Z,0.50
2023-05-11T11:26:32.060Z,0.80
2023-05-11T11:27:31.887Z,0.70
2023-05-11T11:28:31.871Z,0.40
2023-05-11T11:29:40.373Z,0.50
2023-05-11T11:30:39.870Z,1.10
2023-05-11T11:31:38.969Z,0.40
2023-05-11T11:32:31.849Z,0.80
2023-05-11T11:33:38.850Z,0.60
2023-05-11T11:34:31.802Z,0.50
2023-05-11T11:35:31.796Z,0.40
2023-05-11T11:36:31.794Z,0.60
2023-05-11T11:37:31.796Z,0.40
2023-05-11T11:38:31.753Z,0.50
2023-05-11T11:39:31.773Z,0.60
2023-05-11T11:40:39.324Z,0.40
2023-05-11T11:41:32.761Z,0.60
2023-05-11T11:42:31.722Z,0.20
2023-05-11T11:43:32.022Z,0.60
2023-05-11T11:44:31.699Z,0.20
2023-05-11T11:45:31.701Z,0.50
2023-05-11T11:46:31.759Z,0.80
2023-05-11T11:47:31.769Z,1.00
2023-05-11T11:48:31.648Z,0.60
2023-05-11T11:49:31.655Z,0.50
2023-05-11T11:50:31.666Z,0.30
2023-05-11T11:51:31.644Z,0.50
2023-05-11T11:52:31.665Z,0.50
2023-05-11T11:53:31.596Z,0.30
2023-05-11T11:54:31.617Z,0.20
2023-05-11T11:55:31.592Z,0.40
2023-05-11T11:56:31.576Z,0.60
2023-05-11T11:57:31.571Z,0.60
2023-05-11T11:58:31.557Z,0.50
2023-05-11T11:59:31.575Z,0.40
2023-05-11T12:00:31.535Z,0.60
2023-05-11T12:01:31.512Z,0.50
2023-05-11T12:02:31.567Z,0.50
2023-05-11T12:03:31.705Z,1.20
2023-05-11T12:04:31.686Z,0.30
2023-05-11T12:05:31.516Z,0.30
2023-05-11T12:06:31.454Z,0.50
2023-05-11T12:07:31.464Z,0.50
2023-05-11T12:08:31.440Z,0.50
2023-05-11T12:09:31.471Z,0.30
2023-05-11T12:10:31.410Z,0.40
2023-05-11T12:11:31.401Z,0.20
2023-05-11T12:12:31.402Z,0.50
2023-05-11T12:13:31.405Z,0.50
2023-05-11T12:14:31.362Z,0.40
2023-05-11T12:15:31.370Z,0.50
2023-05-11T12:16:31.337Z,0.60
2023-05-11T12:17:31.376Z,0.40
2023-05-11T12:18:31.514Z,0.30
2023-05-11T12:19:31.328Z,0.60
2023-05-11T12:20:31.407Z,0.40
2023-05-11T12:21:31.401Z,0.40
2023-05-11T12:22:31.361Z,0.40
2023-05-11T12:23:31.371Z,0.30
2023-05-11T12:24:31.260Z,0.30
2023-05-11T12:25:31.254Z,0.40
2023-05-11T12:26:31.235Z,0.40
2023-05-11T12:27:31.231Z,0.50
2023-05-11T12:28:31.228Z,0.60
2023-05-11T12:29:31.216Z,0.40
2023-05-11T12:30:31.184Z,0.40
2023-05-11T12:31:31.253Z,0.50
2023-05-11T12:32:31.195Z,0.50
2023-05-11T12:33:31.180Z,0.20
2023-05-11T12:34:31.139Z,0.50
2023-05-11T12:35:31.126Z,0.60
2023-05-11T12:36:31.144Z,0.50
2023-05-11T12:37:31.124Z,0.30
2023-05-11T12:38:34.338Z,0.30
2023-05-11T12:39:31.100Z,0.40
2023-05-11T12:40:31.111Z,0.40
2023-05-11T12:41:31.089Z,0.30
2023-05-11T12:42:32.262Z,0.40
2023-05-11T12:43:31.040Z,0.50
2023-05-11T12:44:31.077Z,0.50
2023-05-11T12:45:31.017Z,1.00
2023-05-11T12:46:31.092Z,0.30
2023-05-11T12:47:31.079Z,0.60
2023-05-11T12:48:30.985Z,0.50
2023-05-11T12:49:30.981Z,0.50
2023-05-11T12:50:31.016Z,0.50
2023-05-11T12:51:31.205Z,0.40
2023-05-11T12:52:30.995Z,0.50
2023-05-11T12:53:32.009Z,0.50
2023-05-11T12:54:30.950Z,0.70
2023-05-11T12:55:31.610Z,0.50
2023-05-11T12:56:31.148Z,0.50
2023-05-11T12:57:31.773Z,0.20
2023-05-11T12:58:30.923Z,0.60
2023-05-11T12:59:31.942Z,0.60
2023-05-11T13:00:31.853Z,1.10
2023-05-11T13:01:30.869Z,0.40
2023-05-11T13:02:30.905Z,0.60
2023-05-11T13:03:30.894Z,0.50
2023-05-11T13:04:30.840Z,0.80
2023-05-11T13:05:30.814Z,0.60
2023-05-11T13:06:30.812Z,0.60
2023-05-11T13:07:30.795Z,0.50
2023-05-11T13:08:30.799Z,0.50
2023-05-11T13:09:30.786Z,0.70
2023-05-11T13:10:30.791Z,0.50
2023-05-11T13:11:30.738Z,0.50
2023-05-11T13:12:32.285Z,0.20
2023-05-11T13:13:30.776Z,0.60
2023-05-11T13:14:30.721Z,0.10
2023-05-11T13:15:30.725Z,0.50
2023-05-11T13:16:30.854Z,0.70
2023-05-11T13:17:30.724Z,0.70
2023-05-11T13:18:30.676Z,0.30
2023-05-11T13:19:30.646Z,0.20
2023-05-11T13:20:30.642Z,0.20